createdAt,value
2023-01-18T00:01:22.014Z,9.68
2023-01-18T00:03:50.512Z,9.60
2023-01-18T00:06:18.974Z,9.73
2023-01-18T00:08:45.508Z,12.82
2023-01-18T00:11:16.551Z,9.30
2023-01-18T00:13:45.364Z,9.65
2023-01-18T00:16:20.380Z,10.85
2023-01-18T00:18:57.162Z,10.50
2023-01-18T00:21:24.709Z,8.55
2023-01-18T00:23:52.530Z,9.38
2023-01-18T00:26:20.507Z,10.65
2023-01-18T00:28:48.920Z,9.30
2023-01-18T00:31:20.256Z,9.63
2023-01-18T00:33:50.657Z,11.38
2023-01-18T00:36:19.529Z,11.18
2023-01-18T00:38:54.070Z,11.68
2023-01-18T00:41:22.262Z,10.75
2023-01-18T00:43:49.156Z,8.75
2023-01-18T00:46:20.652Z,10.60
2023-01-18T00:48:48.162Z,9.75
2023-01-18T00:51:20.519Z,11.43
2023-01-18T00:53:49.485Z,10.32
2023-01-18T00:56:21.607Z,11.73
2023-01-18T00:58:51.543Z,10.70
2023-01-18T01:01:19.601Z,12.38
2023-01-18T01:04:04.908Z,11.82
2023-01-18T01:06:45.168Z,9.13
2023-01-18T01:09:23.526Z,11.02
2023-01-18T01:12:11.576Z,10.82
2023-01-18T01:15:01.988Z,14.65
2023-01-18T01:17:50.082Z,10.90
2023-01-18T01:20:36.954Z,10.05
2023-01-18T01:23:32.203Z,9.77
2023-01-18T01:26:08.505Z,8.55
2023-01-18T01:28:36.427Z,9.77
2023-01-18T01:31:04.795Z,10.77
2023-01-18T01:33:34.047Z,10.88
2023-01-18T01:36:27.526Z,11.02
2023-01-18T01:38:57.435Z,11.85
2023-01-18T01:41:34.541Z,10.60
2023-01-18T01:44:28.057Z,12.35
2023-01-18T01:47:17.514Z,11.07
2023-01-18T01:49:49.625Z,11.45
2023-01-18T01:52:30.543Z,10.43
2023-01-18T01:55:14.583Z,11.85
2023-01-18T01:57:52.976Z,10.77
2023-01-18T02:00:25.306Z,12.77
2023-01-18T02:03:12.948Z,12.40
2023-01-18T02:05:44.530Z,11.25
2023-01-18T02:08:13.934Z,12.75
2023-01-18T02:10:43.711Z,11.57
2023-01-18T02:13:11.511Z,11.20
2023-01-18T02:15:54.512Z,13.05
2023-01-18T02:18:39.512Z,12.60
2023-01-18T02:21:19.067Z,12.73
2023-01-18T02:24:04.794Z,13.13
2023-01-18T02:26:53.827Z,14.05
2023-01-18T02:29:55.565Z,11.48
2023-01-18T02:32:40.229Z,11.10
2023-01-18T02:35:18.525Z,12.95
2023-01-18T02:38:23.535Z,13.10
2023-01-18T02:41:08.702Z,14.65
2023-01-18T02:43:56.003Z,14.20
2023-01-18T02:46:32.675Z,15.27
2023-01-18T02:49:06.745Z,14.27
2023-01-18T02:51:33.787Z,17.50
2023-01-18T02:54:04.533Z,12.68
2023-01-18T02:56:49.398Z,15.15
2023-01-18T02:59:38.929Z,11.60
2023-01-18T03:02:12.588Z,16.95
2023-01-18T03:04:54.059Z,13.43
2023-01-18T03:07:28.798Z,14.73
2023-01-18T03:10:02.545Z,12.32
2023-01-18T03:12:46.421Z,14.30
2023-01-18T03:15:36.316Z,13.05
2023-01-18T03:18:16.116Z,18.13
2023-01-18T03:20:51.865Z,13.18
2023-01-18T03:23:38.520Z,13.35
2023-01-18T03:26:11.383Z,13.80
2023-01-18T03:29:05.537Z,15.18
2023-01-18T03:32:01.534Z,14.95
2023-01-18T03:34:55.596Z,15.45
2023-01-18T03:37:26.603Z,16.40
2023-01-18T03:40:00.547Z,16.15
2023-01-18T03:42:41.990Z,16.08
2023-01-18T03:45:12.877Z,12.38
2023-01-18T03:47:41.247Z,12.25
2023-01-18T03:50:09.523Z,16.08
2023-01-18T03:52:43.555Z,13.82
2023-01-18T03:55:25.382Z,12.20
2023-01-18T03:58:10.970Z,14.10
2023-01-18T04:00:38.901Z,11.63
2023-01-18T04:03:07.595Z,13.57
2023-01-18T04:05:35.272Z,14.48
2023-01-18T04:08:03.133Z,12.07
2023-01-18T04:10:30.956Z,15.38
2023-01-18T04:13:01.122Z,13.05
2023-01-18T04:15:29.953Z,14.07
2023-01-18T04:17:57.919Z,15.07
2023-01-18T04:20:27.547Z,18.20
2023-01-18T04:23:00.006Z,15.23
2023-01-18T04:25:30.092Z,18.77
2023-01-18T04:27:59.548Z,14.15
2023-01-18T04:30:28.041Z,13.90
2023-01-18T04:32:54.622Z,13.88
2023-01-18T04:35:23.002Z,11.90
2023-01-18T04:37:52.596Z,13.63
2023-01-18T04:40:19.492Z,13.48
2023-01-18T04:42:54.929Z,12.90
2023-01-18T04:45:23.061Z,14.43
2023-01-18T04:47:49.581Z,15.02
2023-01-18T04:50:19.662Z,13.68
2023-01-18T04:52:46.206Z,10.90
2023-01-18T04:55:15.803Z,12.57
2023-01-18T04:57:44.572Z,11.98
2023-01-18T05:00:17.272Z,13.55
2023-01-18T05:02:45.523Z,12.32
2023-01-18T05:05:14.022Z,13.05
2023-01-18T05:07:40.524Z,12.30
2023-01-18T05:10:09.722Z,12.02
2023-01-18T05:12:38.082Z,13.23
2023-01-18T05:15:06.376Z,17.58
2023-01-18T05:17:34.788Z,14.93
2023-01-18T05:20:05.699Z,12.60
2023-01-18T05:22:34.218Z,13.07
2023-01-18T05:25:03.586Z,12.13
2023-01-18T05:27:30.359Z,19.15
2023-01-18T05:29:59.947Z,13.00
2023-01-18T05:32:28.065Z,12.43
2023-01-18T05:34:54.590Z,14.77
2023-01-18T05:37:21.656Z,12.40
2023-01-18T05:39:50.111Z,12.07
2023-01-18T05:42:18.552Z,10.80
2023-01-18T05:44:47.114Z,15.40
2023-01-18T05:47:15.544Z,13.07
2023-01-18T05:49:43.995Z,13.63
2023-01-18T05:52:12.099Z,14.18
2023-01-18T05:54:40.571Z,13.38
2023-01-18T05:57:07.251Z,11.73
2023-01-18T05:59:33.920Z,15.00
2023-01-18T06:02:00.502Z,14.70
2023-01-18T06:04:30.607Z,15.88
2023-01-18T06:06:57.268Z,12.77
2023-01-18T06:09:23.890Z,10.63
2023-01-18T06:11:50.456Z,10.50
2023-01-18T06:14:20.563Z,21.13
2023-01-18T06:16:48.030Z,16.55
2023-01-18T06:19:14.999Z,15.88
2023-01-18T06:21:42.941Z,12.80
2023-01-18T06:24:10.955Z,13.82
2023-01-18T06:26:37.535Z,12.68
2023-01-18T06:29:06.010Z,13.68
2023-01-18T06:31:35.610Z,11.98
2023-01-18T06:34:09.225Z,13.38
2023-01-18T06:36:37.954Z,13.45
2023-01-18T06:39:06.376Z,13.52
2023-01-18T06:41:34.050Z,15.77
2023-01-18T06:44:00.700Z,14.07
2023-01-18T06:46:28.628Z,15.18
2023-01-18T06:48:56.537Z,17.60
2023-01-18T06:51:26.531Z,15.85
2023-01-18T06:53:54.343Z,19.13
2023-01-18T06:56:25.089Z,20.23
2023-01-18T06:58:57.574Z,15.02
2023-01-18T07:01:26.293Z,17.40
2023-01-18T07:03:55.058Z,18.75
2023-01-18T07:06:23.016Z,18.20
2023-01-18T07:08:49.979Z,20.90
2023-01-18T07:11:19.004Z,18.48
2023-01-18T07:13:47.262Z,18.52
2023-01-18T07:16:17.622Z,20.88
2023-01-18T07:18:46.796Z,22.27
2023-01-18T07:21:16.541Z,17.13
2023-01-18T07:23:43.984Z,20.33
2023-01-18T07:26:19.670Z,18.00
2023-01-18T07:28:47.621Z,23.48
2023-01-18T07:31:18.564Z,14.00
2023-01-18T07:33:46.534Z,17.23
2023-01-18T07:36:14.021Z,17.17
2023-01-18T07:38:40.888Z,16.70
2023-01-18T07:41:11.610Z,17.35
2023-01-18T07:43:39.561Z,17.83
2023-01-18T07:46:10.249Z,18.25
2023-01-18T07:48:39.546Z,18.48
2023-01-18T07:51:08.409Z,16.88
2023-01-18T07:53:36.550Z,19.67
2023-01-18T07:56:11.979Z,19.50
2023-01-18T07:58:39.928Z,17.42
2023-01-18T08:01:13.628Z,19.20
2023-01-18T08:03:43.649Z,19.05
2023-01-18T08:06:13.416Z,16.45
2023-01-18T08:08:42.524Z,19.45
2023-01-18T08:11:11.844Z,19.20
2023-01-18T08:13:38.565Z,15.57
2023-01-18T08:16:10.668Z,15.82
2023-01-18T08:18:40.564Z,18.30
2023-01-18T08:21:11.024Z,16.60
2023-01-18T08:23:38.939Z,22.38
2023-01-18T08:26:07.647Z,15.57
2023-01-18T08:28:37.678Z,16.40
2023-01-18T08:31:07.839Z,16.05
2023-01-18T08:33:50.542Z,16.90
2023-01-18T08:36:21.761Z,16.25
2023-01-18T08:38:53.259Z,17.67
2023-01-18T08:41:22.654Z,32.05
2023-01-18T08:43:53.637Z,18.20
2023-01-18T08:46:22.647Z,13.73
2023-01-18T08:48:57.813Z,14.85
2023-01-18T08:51:27.592Z,20.20
2023-01-18T08:53:57.364Z,16.80
2023-01-18T08:56:26.951Z,18.25
2023-01-18T08:58:56.587Z,14.93
2023-01-18T09:01:24.008Z,13.80
2023-01-18T09:03:55.578Z,14.32
2023-01-18T09:06:22.268Z,17.23
2023-01-18T09:08:50.343Z,15.77
2023-01-18T09:11:18.714Z,17.20
2023-01-18T09:13:59.711Z,13.18
2023-01-18T09:16:31.682Z,17.92
2023-01-18T09:19:00.134Z,14.43
2023-01-18T09:21:30.538Z,13.75
2023-01-18T09:23:59.738Z,14.18
2023-01-18T09:26:27.706Z,12.65
2023-01-18T09:28:57.758Z,14.85
2023-01-18T09:31:27.523Z,11.10
2023-01-18T09:34:00.998Z,19.30
2023-01-18T09:36:40.451Z,14.30
2023-01-18T09:39:07.415Z,12.63
2023-01-18T09:41:38.362Z,12.65
2023-01-18T09:44:49.366Z,14.13
2023-01-18T09:47:30.845Z,13.45
2023-01-18T09:49:59.666Z,16.83
2023-01-18T09:52:36.586Z,13.50
2023-01-18T09:55:38.692Z,13.02
2023-01-18T09:58:47.685Z,11.75
2023-01-18T10:01:23.736Z,13.95
2023-01-18T10:03:57.099Z,13.43
2023-01-18T10:06:32.866Z,14.20
2023-01-18T10:09:08.545Z,17.90
2023-01-18T10:11:48.084Z,11.65
2023-01-18T10:14:24.562Z,13.18
2023-01-18T10:17:03.539Z,12.38
2023-01-18T10:19:32.297Z,17.08
2023-01-18T10:22:05.007Z,13.93
2023-01-18T10:24:39.596Z,13.50
2023-01-18T10:27:31.924Z,11.98
2023-01-18T10:30:11.079Z,13.40
2023-01-18T10:32:38.936Z,13.43
2023-01-18T10:35:18.062Z,11.15
2023-01-18T10:37:46.641Z,12.43
2023-01-18T10:40:14.661Z,13.05
2023-01-18T10:42:47.565Z,12.07
2023-01-18T10:45:21.570Z,13.70
2023-01-18T10:47:50.745Z,14.93
2023-01-18T10:50:24.655Z,14.45
2023-01-18T10:52:51.987Z,14.25
2023-01-18T10:55:19.942Z,10.23
2023-01-18T10:57:50.365Z,13.00
2023-01-18T11:00:22.573Z,12.15
2023-01-18T11:02:53.270Z,12.15
2023-01-18T11:05:40.270Z,10.95
2023-01-18T11:08:32.724Z,10.27
2023-01-18T11:11:45.688Z,9.93
2023-01-18T11:14:28.272Z,10.50
2023-01-18T11:17:11.355Z,8.35
2023-01-18T11:19:39.288Z,13.15
2023-01-18T11:22:18.583Z,12.55
2023-01-18T11:24:52.952Z,11.80
2023-01-18T11:27:25.571Z,12.07
2023-01-18T11:29:54.550Z,10.23
2023-01-18T11:32:28.631Z,8.82
2023-01-18T11:35:00.055Z,9.82
2023-01-18T11:37:35.570Z,10.05
2023-01-18T11:40:26.835Z,9.37
2023-01-18T11:43:01.634Z,12.75
2023-01-18T11:45:45.629Z,12.23
2023-01-18T11:48:22.573Z,10.43
2023-01-18T11:50:54.115Z,7.95
2023-01-18T11:53:23.645Z,9.53
2023-01-18T11:56:10.550Z,10.50
2023-01-18T11:58:37.467Z,10.57
2023-01-18T12:01:39.589Z,9.85
2023-01-18T12:04:36.387Z,10.55
2023-01-18T12:07:35.573Z,8.83
2023-01-18T12:10:06.608Z,10.88
2023-01-18T12:12:59.681Z,9.25
2023-01-18T12:15:52.455Z,10.02
2023-01-18T12:18:22.156Z,10.63
2023-01-18T12:21:09.258Z,10.83
2023-01-18T12:23:55.720Z,9.25
2023-01-18T12:26:46.760Z,8.57
2023-01-18T12:29:36.451Z,8.23
2023-01-18T12:32:26.600Z,10.77
2023-01-18T12:35:33.402Z,8.33
2023-01-18T12:38:18.871Z,8.68
2023-01-18T12:41:13.818Z,10.88
2023-01-18T12:44:05.909Z,8.02
2023-01-18T12:47:03.618Z,7.32
2023-01-18T12:53:41.341Z,9.35
2023-01-18T12:56:25.581Z,9.13
2023-01-18T12:58:57.734Z,9.13
2023-01-18T13:01:32.650Z,8.60
2023-01-18T13:04:08.600Z,7.53
2023-01-18T13:06:38.503Z,9.98
2023-01-18T13:09:13.597Z,9.05
2023-01-18T13:11:43.740Z,8.13
2023-01-18T13:14:22.613Z,7.85
2023-01-18T13:17:00.139Z,8.40
2023-01-18T13:19:46.850Z,8.75
2023-01-18T13:22:31.651Z,8.02
2023-01-18T13:25:30.985Z,8.75
2023-01-18T13:28:03.605Z,9.48
2023-01-18T13:30:46.656Z,11.73
2023-01-18T13:33:14.911Z,9.60
2023-01-18T13:35:53.119Z,8.48
2023-01-18T13:38:40.248Z,8.82
2023-01-18T13:41:13.639Z,7.70
2023-01-18T13:43:42.557Z,10.80
2023-01-18T13:46:09.755Z,8.60
2023-01-18T13:49:02.448Z,10.98
2023-01-18T13:51:38.562Z,12.13
2023-01-18T13:54:09.400Z,8.93
2023-01-18T13:56:38.363Z,11.63
2023-01-18T13:59:12.131Z,11.45
2023-01-18T14:01:43.861Z,11.85
2023-01-18T14:04:33.112Z,11.82
2023-01-18T14:07:03.936Z,10.27
2023-01-18T14:09:43.197Z,8.40
2023-01-18T14:12:14.580Z,8.13
2023-01-18T14:14:58.841Z,11.05
2023-01-18T14:17:26.052Z,9.75
2023-01-18T14:20:01.621Z,10.07
2023-01-18T14:22:46.163Z,10.37
2023-01-18T14:25:24.599Z,9.25
2023-01-18T14:28:09.565Z,8.80
2023-01-18T14:30:41.041Z,7.97
2023-01-18T14:33:21.526Z,10.82
2023-01-18T14:35:53.449Z,8.90
2023-01-18T14:38:21.033Z,8.35
2023-01-18T14:40:50.497Z,9.18
2023-01-18T14:43:46.429Z,10.57
2023-01-18T14:46:22.934Z,8.55
2023-01-18T14:48:57.160Z,8.37
2023-01-18T14:51:28.126Z,7.35
2023-01-18T14:54:00.470Z,9.27
2023-01-18T14:56:33.619Z,9.38
2023-01-18T14:59:18.498Z,8.15
2023-01-18T15:01:53.258Z,8.73
2023-01-18T15:04:23.785Z,8.55
2023-01-18T15:07:04.054Z,8.13
2023-01-18T15:09:32.720Z,6.35
2023-01-18T15:12:04.138Z,7.75
2023-01-18T15:14:37.521Z,7.53
2023-01-18T15:17:11.568Z,5.55
2023-01-18T15:19:45.854Z,7.57
2023-01-18T15:22:16.830Z,6.55
2023-01-18T15:24:45.342Z,7.85
2023-01-18T15:27:15.247Z,6.90
2023-01-18T15:29:49.577Z,9.90
2023-01-18T15:32:27.312Z,9.13
2023-01-18T15:34:59.602Z,6.63
2023-01-18T15:37:33.085Z,7.20
2023-01-18T15:40:15.566Z,6.63
2023-01-18T15:42:46.558Z,7.15
2023-01-18T15:45:20.575Z,7.43
2023-01-18T15:47:49.727Z,8.80
2023-01-18T15:50:19.537Z,11.32
2023-01-18T15:52:55.567Z,7.57
2023-01-18T15:55:33.591Z,11.18
2023-01-18T15:58:06.898Z,8.68
2023-01-18T16:00:55.813Z,8.32
2023-01-18T16:03:29.130Z,7.75
2023-01-18T16:06:02.095Z,7.60
2023-01-18T16:08:30.837Z,9.77
2023-01-18T16:10:57.483Z,8.07
2023-01-18T16:13:25.935Z,8.07
2023-01-18T16:16:15.926Z,10.60
2023-01-18T16:18:48.981Z,9.67
2023-01-18T16:21:40.430Z,8.80
2023-01-18T16:24:37.620Z,8.77
2023-01-18T16:27:15.575Z,11.68
2023-01-18T16:29:46.733Z,10.35
2023-01-18T16:32:34.917Z,7.43
2023-01-18T16:35:10.842Z,7.20
2023-01-18T16:37:41.383Z,10.52
2023-01-18T16:40:12.571Z,7.40
2023-01-18T16:42:54.923Z,10.75
2023-01-18T16:45:24.631Z,10.07
2023-01-18T16:47:52.959Z,12.18
2023-01-18T16:50:19.851Z,9.60
2023-01-18T16:52:47.974Z,8.68
2023-01-18T16:55:15.930Z,8.85
2023-01-18T16:57:44.398Z,8.30
2023-01-18T17:00:17.141Z,8.43
2023-01-18T17:02:43.770Z,9.38
2023-01-18T17:05:10.641Z,9.20
2023-01-18T17:07:39.101Z,7.40
2023-01-18T17:10:21.587Z,8.20
2023-01-18T17:12:49.976Z,7.40
2023-01-18T17:15:19.970Z,8.80
2023-01-18T17:17:48.187Z,8.77
2023-01-18T17:20:23.449Z,8.43
2023-01-18T17:22:52.595Z,10.17
2023-01-18T17:25:22.409Z,8.32
2023-01-18T17:27:49.835Z,9.77
2023-01-18T17:30:19.675Z,10.98
2023-01-18T17:32:48.593Z,10.50
2023-01-18T17:35:18.163Z,6.80
2023-01-18T17:37:44.967Z,9.88
2023-01-18T17:40:22.591Z,13.63
2023-01-18T17:42:52.771Z,8.20
2023-01-18T17:45:19.954Z,10.85
2023-01-18T17:47:46.510Z,9.37
2023-01-18T17:50:18.931Z,10.02
2023-01-18T17:52:46.035Z,7.82
2023-01-18T17:55:13.637Z,9.02
2023-01-18T17:57:42.879Z,11.52
2023-01-18T18:00:11.742Z,9.70
2023-01-18T18:02:42.635Z,9.50
2023-01-18T18:05:10.135Z,9.85
2023-01-18T18:07:38.399Z,12.32
2023-01-18T18:10:06.548Z,8.98
2023-01-18T18:12:34.319Z,11.83
2023-01-18T18:15:04.588Z,9.85
2023-01-18T18:17:32.936Z,10.80
2023-01-18T18:20:01.643Z,8.95
2023-01-18T18:22:28.515Z,11.30
2023-01-18T18:24:55.964Z,10.03
2023-01-18T18:27:26.630Z,11.50
2023-01-18T18:29:59.592Z,12.75
2023-01-18T18:32:26.407Z,10.77
2023-01-18T18:34:52.924Z,14.98
2023-01-18T18:37:21.617Z,10.07
2023-01-18T18:39:49.996Z,9.27
2023-01-18T18:42:17.608Z,11.23
2023-01-18T18:44:45.955Z,11.30
2023-01-18T18:47:13.367Z,11.55
2023-01-18T18:49:43.574Z,12.02
2023-01-18T18:52:10.109Z,10.55
2023-01-18T18:54:36.655Z,14.25
2023-01-18T18:57:03.403Z,11.52
2023-01-18T18:59:30.085Z,10.23
2023-01-18T19:01:58.660Z,12.50
2023-01-18T19:04:26.331Z,15.15
2023-01-18T19:06:53.937Z,11.43
2023-01-18T19:09:22.614Z,11.85
2023-01-18T19:11:55.062Z,11.52
2023-01-18T19:14:25.575Z,11.10
2023-01-18T19:16:54.249Z,14.30
2023-01-18T19:19:25.390Z,17.60
2023-01-18T19:21:54.018Z,12.50
2023-01-18T19:24:23.485Z,11.25
2023-01-18T19:26:50.034Z,15.10
2023-01-18T19:29:19.573Z,11.65
2023-01-18T19:31:49.628Z,17.83
2023-01-18T19:34:18.266Z,15.35
2023-01-18T19:36:46.588Z,13.50
2023-01-18T19:39:22.417Z,14.30
2023-01-18T19:41:52.405Z,15.52
2023-01-18T19:44:18.956Z,12.88
2023-01-18T19:46:47.030Z,13.23
2023-01-18T19:49:16.644Z,14.57
2023-01-18T19:51:45.498Z,11.07
2023-01-18T19:54:12.599Z,11.52
2023-01-18T19:56:39.105Z,14.70
2023-01-18T19:59:07.977Z,13.00
2023-01-18T20:01:37.915Z,13.40
2023-01-18T20:04:07.370Z,14.37
2023-01-18T20:06:38.190Z,14.88
2023-01-18T20:09:12.806Z,16.92
2023-01-18T20:11:48.871Z,12.07
2023-01-18T20:14:17.586Z,14.95
2023-01-18T20:16:46.182Z,13.73
2023-01-18T20:19:14.866Z,15.93
2023-01-18T20:21:43.082Z,14.57
2023-01-18T20:24:10.975Z,14.07
2023-01-18T20:26:40.078Z,12.80
2023-01-18T20:29:08.712Z,13.07
2023-01-18T20:31:38.535Z,14.93
2023-01-18T20:34:06.663Z,13.63
2023-01-18T20:36:37.408Z,16.88
2023-01-18T20:39:08.607Z,12.70
2023-01-18T20:41:35.974Z,16.83
2023-01-18T20:44:02.523Z,14.93
2023-01-18T20:46:31.045Z,16.77
2023-01-18T20:48:59.019Z,17.02
2023-01-18T20:51:26.599Z,16.60
2023-01-18T20:53:55.066Z,15.57
2023-01-18T20:56:29.240Z,14.25
2023-01-18T20:58:58.061Z,16.60
2023-01-18T21:01:31.937Z,13.80
2023-01-18T21:04:02.688Z,14.38
2023-01-18T21:06:30.594Z,15.53
2023-01-18T21:09:01.666Z,19.38
2023-01-18T21:11:30.159Z,15.05
2023-01-18T21:14:00.613Z,14.88
2023-01-18T21:16:29.142Z,18.30
2023-01-18T21:19:01.486Z,13.55
2023-01-18T21:21:31.647Z,16.52
2023-01-18T21:23:59.808Z,17.88
2023-01-18T21:26:27.635Z,12.70
2023-01-18T21:28:55.099Z,16.23
2023-01-18T21:31:21.882Z,16.80
2023-01-18T21:33:50.017Z,15.07
2023-01-18T21:36:19.625Z,15.00
2023-01-18T21:38:47.054Z,16.63
2023-01-18T21:41:34.619Z,20.05
2023-01-18T21:44:21.693Z,14.98
2023-01-18T21:46:51.768Z,11.55
2023-01-18T21:50:15.900Z,13.88
2023-01-18T21:52:59.599Z,19.25
2023-01-18T21:55:26.969Z,16.70
2023-01-18T21:58:24.822Z,16.52
2023-01-18T22:00:53.748Z,16.50
2023-01-18T22:03:22.094Z,13.80
2023-01-18T22:05:50.197Z,16.60
2023-01-18T22:08:16.961Z,17.40
2023-01-18T22:10:47.773Z,18.33
2023-01-18T22:13:14.315Z,15.68
2023-01-18T22:15:43.613Z,14.43
2023-01-18T22:18:11.988Z,14.82
2023-01-18T22:20:38.550Z,16.83
2023-01-18T22:23:06.073Z,19.52
2023-01-18T22:25:33.964Z,18.27
2023-01-18T22:28:00.933Z,17.52
2023-01-18T22:30:28.487Z,17.52
2023-01-18T22:32:59.848Z,19.02
2023-01-18T22:35:30.384Z,17.67
2023-01-18T22:37:59.879Z,19.10
2023-01-18T22:40:27.047Z,17.90
2023-01-18T22:42:55.042Z,20.55
2023-01-18T22:45:24.623Z,17.30
2023-01-18T22:47:51.946Z,16.48
2023-01-18T22:50:19.600Z,17.67
2023-01-18T22:52:46.954Z,21.05
2023-01-18T22:55:14.651Z,22.02
2023-01-18T22:57:41.173Z,20.40
2023-01-18T23:00:11.620Z,21.50
2023-01-18T23:02:38.743Z,23.30
2023-01-18T23:05:07.442Z,21.08
2023-01-18T23:07:34.117Z,24.65
2023-01-18T23:10:00.673Z,23.35
2023-01-18T23:12:29.137Z,24.27
2023-01-18T23:15:18.765Z,25.60
2023-01-18T23:17:47.004Z,27.35
2023-01-18T23:20:16.668Z,29.85
2023-01-18T23:22:44.589Z,29.00
2023-01-18T23:25:12.686Z,34.63
2023-01-18T23:27:42.657Z,35.05
2023-01-18T23:30:13.669Z,28.45
2023-01-18T23:32:42.008Z,28.48
2023-01-18T23:35:10.137Z,27.13
2023-01-18T23:37:36.635Z,29.83
2023-01-18T23:40:21.677Z,30.30
2023-01-18T23:43:06.671Z,29.20
2023-01-18T23:45:51.537Z,34.08
2023-01-18T23:48:40.636Z,29.05
2023-01-18T23:51:27.717Z,32.40
2023-01-18T23:54:14.757Z,30.35
2023-01-18T23:56:46.603Z,33.92
2023-01-18T23:59:14.142Z,30.65
